createdAt,value
2019-02-03T00:01:49.868Z,33.50
2019-02-03T00:04:21.767Z,35.97
2019-02-03T00:07:02.705Z,33.50
2019-02-03T00:09:22.381Z,33.70
2019-02-03T00:11:51.437Z,35.03
2019-02-03T00:14:20.443Z,33.03
2019-02-03T00:16:49.471Z,34.23
2019-02-03T00:19:18.520Z,33.00
2019-02-03T00:21:47.484Z,32.93
2019-02-03T00:24:16.494Z,33.40
2019-02-03T00:26:45.516Z,33.73
2019-02-03T00:29:14.612Z,34.03
2019-02-03T00:31:44.240Z,32.10
2019-02-03T00:34:13.263Z,37.20
2019-02-03T00:36:42.288Z,33.60
2019-02-03T00:39:11.369Z,37.40
2019-02-03T00:41:40.457Z,33.73
2019-02-03T00:44:09.519Z,34.20
2019-02-03T00:46:38.565Z,33.40
2019-02-03T00:49:07.598Z,33.87
2019-02-03T00:51:36.600Z,33.03
2019-02-03T00:54:06.392Z,29.93
2019-02-03T00:56:35.424Z,30.80
2019-02-03T00:59:14.192Z,30.80
2019-02-03T01:01:43.233Z,30.80
2019-02-03T01:04:12.270Z,30.67
2019-02-03T01:07:00.471Z,30.60
2019-02-03T01:09:29.487Z,32.00
2019-02-03T01:11:58.509Z,32.60
2019-02-03T01:14:27.491Z,31.73
2019-02-03T01:16:56.476Z,33.53
2019-02-03T01:19:25.511Z,33.00
2019-02-03T01:21:55.023Z,31.87
2019-02-03T01:24:24.162Z,32.83
2019-02-03T01:27:12.266Z,32.37
2019-02-03T01:29:41.133Z,32.50
2019-02-03T01:32:10.839Z,33.87
2019-02-03T01:34:39.809Z,33.43
2019-02-03T01:37:08.852Z,32.33
2019-02-03T01:39:37.868Z,32.30
2019-02-03T01:42:06.937Z,31.73
2019-02-03T01:44:35.942Z,31.63
2019-02-03T01:47:04.964Z,30.80
2019-02-03T01:49:33.984Z,31.73
2019-02-03T01:52:03.001Z,31.30
2019-02-03T01:54:32.044Z,29.40
2019-02-03T01:57:01.072Z,31.33
2019-02-03T01:59:30.676Z,31.47
2019-02-03T02:01:59.687Z,30.10
2019-02-03T02:04:28.740Z,31.73
2019-02-03T02:06:57.684Z,31.17
2019-02-03T02:09:32.145Z,31.00
2019-02-03T02:12:01.147Z,31.20
2019-02-03T02:14:30.149Z,31.20
2019-02-03T02:16:59.193Z,32.50
2019-02-03T02:19:31.384Z,30.00
2019-02-03T02:22:00.388Z,30.70
2019-02-03T02:24:29.400Z,31.30
2019-02-03T02:26:58.923Z,31.60
2019-02-03T02:29:47.067Z,29.40
2019-02-03T02:32:16.039Z,28.13
2019-02-03T02:34:45.078Z,33.00
2019-02-03T02:37:14.865Z,30.20
2019-02-03T02:39:43.797Z,30.87
2019-02-03T02:42:12.877Z,30.90
2019-02-03T02:44:41.932Z,30.63
2019-02-03T02:47:11.015Z,31.00
2019-02-03T02:49:42.937Z,30.27
2019-02-03T02:52:11.994Z,28.60
2019-02-03T02:54:40.956Z,30.77
2019-02-03T02:57:10.014Z,30.30
2019-02-03T02:59:39.000Z,28.63
2019-02-03T03:02:08.022Z,33.10
2019-02-03T03:04:46.078Z,29.10
2019-02-03T03:07:15.129Z,27.87
2019-02-03T03:09:44.097Z,29.43
2019-02-03T03:12:13.148Z,33.30
2019-02-03T03:14:42.180Z,29.27
2019-02-03T03:17:11.614Z,30.97
2019-02-03T03:19:40.577Z,33.87
2019-02-03T03:22:09.592Z,33.53
2019-02-03T03:24:38.469Z,35.90
2019-02-03T03:27:07.496Z,32.37
2019-02-03T03:29:55.622Z,32.33
2019-02-03T03:32:24.610Z,30.17
2019-02-03T03:34:53.710Z,30.33
2019-02-03T03:37:22.713Z,33.93
2019-02-03T03:39:51.747Z,29.67
2019-02-03T03:42:20.972Z,30.40
2019-02-03T03:44:50.001Z,30.73
2019-02-03T03:47:19.035Z,29.57
2019-02-03T03:49:48.053Z,29.63
2019-02-03T03:52:20.006Z,31.33
2019-02-03T03:54:49.318Z,29.30
2019-02-03T03:57:18.355Z,30.70
2019-02-03T03:59:47.436Z,30.83
2019-02-03T04:02:16.505Z,32.63
2019-02-03T04:04:45.501Z,32.40
2019-02-03T04:07:14.539Z,30.03
2019-02-03T04:09:46.750Z,29.80
2019-02-03T04:12:15.776Z,29.77
2019-02-03T04:14:44.677Z,32.00
2019-02-03T04:17:13.745Z,30.17
2019-02-03T04:19:42.841Z,31.03
2019-02-03T04:22:12.455Z,30.83
2019-02-03T04:24:41.434Z,31.83
2019-02-03T04:27:10.387Z,33.57
2019-02-03T04:29:39.433Z,31.80
2019-02-03T04:32:08.462Z,30.90
2019-02-03T04:34:37.492Z,30.73
2019-02-03T04:37:06.887Z,30.60
2019-02-03T04:39:35.912Z,30.57
2019-02-03T04:42:05.027Z,32.30
2019-02-03T04:44:34.089Z,31.30
2019-02-03T04:47:03.089Z,31.37
2019-02-03T04:49:32.098Z,31.03
2019-02-03T04:52:01.284Z,33.83
2019-02-03T04:54:49.442Z,30.60
2019-02-03T04:57:18.465Z,31.57
2019-02-03T04:59:47.510Z,31.50
2019-02-03T05:02:16.418Z,30.07
2019-02-03T05:04:45.424Z,28.03
2019-02-03T05:07:14.419Z,29.17
2019-02-03T05:09:43.437Z,30.77
2019-02-03T05:12:12.386Z,30.70
2019-02-03T05:14:41.289Z,28.80
2019-02-03T05:17:10.369Z,26.77
2019-02-03T05:19:39.266Z,29.23
2019-02-03T05:22:08.298Z,28.37
2019-02-03T05:24:37.357Z,26.83
2019-02-03T05:27:06.483Z,26.47
2019-02-03T05:29:54.891Z,24.70
2019-02-03T05:32:23.839Z,26.60
2019-02-03T05:34:52.701Z,25.10
2019-02-03T05:37:21.638Z,25.50
2019-02-03T05:39:51.070Z,24.93
2019-02-03T05:42:19.944Z,27.10
2019-02-03T05:44:48.924Z,24.40
2019-02-03T05:47:17.940Z,25.73
2019-02-03T05:49:46.851Z,25.00
2019-02-03T05:52:15.888Z,24.53
2019-02-03T05:54:45.411Z,24.93
2019-02-03T05:57:14.435Z,22.90
2019-02-03T05:59:43.440Z,24.80
2019-02-03T06:02:12.403Z,24.27
2019-02-03T06:04:41.446Z,25.07
2019-02-03T06:07:10.492Z,25.97
2019-02-03T06:09:39.484Z,22.60
2019-02-03T06:12:08.532Z,25.00
2019-02-03T06:14:37.547Z,21.63
2019-02-03T06:17:06.555Z,22.30
2019-02-03T06:19:35.497Z,22.53
2019-02-03T06:22:04.722Z,22.73
2019-02-03T06:24:33.700Z,20.77
2019-02-03T06:27:02.685Z,20.57
2019-02-03T06:29:31.762Z,21.67
2019-02-03T06:32:00.706Z,20.77
2019-02-03T06:34:29.728Z,21.93
2019-02-03T06:36:59.151Z,21.40
2019-02-03T06:39:28.177Z,19.83
2019-02-03T06:42:16.296Z,21.07
2019-02-03T06:44:45.315Z,22.50
2019-02-03T06:47:33.008Z,21.70
2019-02-03T06:50:01.903Z,21.10
2019-02-03T06:52:30.919Z,19.03
2019-02-03T06:54:59.910Z,18.30
2019-02-03T06:57:29.315Z,18.67
2019-02-03T06:59:58.245Z,19.80
2019-02-03T07:02:27.310Z,19.63
2019-02-03T07:04:56.205Z,19.10
2019-02-03T07:07:44.485Z,18.83
2019-02-03T07:10:13.783Z,18.10
2019-02-03T07:12:42.742Z,17.97
2019-02-03T07:15:12.100Z,18.93
2019-02-03T07:17:41.058Z,19.67
2019-02-03T07:20:10.456Z,18.17
2019-02-03T07:22:39.745Z,17.83
2019-02-03T07:25:27.870Z,19.80
2019-02-03T07:27:56.737Z,17.97
2019-02-03T07:30:25.832Z,18.63
2019-02-03T07:32:55.456Z,18.07
2019-02-03T07:35:24.436Z,17.70
2019-02-03T07:37:53.437Z,18.80
2019-02-03T07:40:22.556Z,18.50
2019-02-03T07:42:51.602Z,19.30
2019-02-03T07:45:20.622Z,17.60
2019-02-03T07:47:49.500Z,18.87
2019-02-03T07:50:18.511Z,19.53
2019-02-03T07:52:47.540Z,17.73
2019-02-03T07:55:16.857Z,17.37
2019-02-03T07:57:45.932Z,17.40
2019-02-03T08:00:34.033Z,18.53
2019-02-03T08:03:03.047Z,18.87
2019-02-03T08:05:32.056Z,18.60
2019-02-03T08:08:01.087Z,17.30
2019-02-03T08:10:30.096Z,18.80
2019-02-03T08:12:59.431Z,17.83
2019-02-03T08:15:28.436Z,16.87
2019-02-03T08:17:57.424Z,18.03
2019-02-03T08:20:26.720Z,17.90
2019-02-03T08:22:55.724Z,17.80
2019-02-03T08:25:24.782Z,17.33
2019-02-03T08:27:53.751Z,17.70
2019-02-03T08:30:23.311Z,16.70
2019-02-03T08:32:52.338Z,15.97
2019-02-03T08:35:21.366Z,16.50
2019-02-03T08:37:50.380Z,17.37
2019-02-03T08:40:21.440Z,17.50
2019-02-03T08:42:50.772Z,16.87
2019-02-03T08:45:20.343Z,17.67
2019-02-03T08:47:49.638Z,18.07
2019-02-03T08:50:19.765Z,17.63
2019-02-03T08:52:51.309Z,16.53
2019-02-03T08:55:20.077Z,17.30
2019-02-03T08:57:49.094Z,14.20
2019-02-03T09:00:20.278Z,14.30
2019-02-03T09:02:50.029Z,14.17
2019-02-03T09:05:19.383Z,14.23
2019-02-03T09:07:48.961Z,14.30
2019-02-03T09:10:19.828Z,13.37
2019-02-03T09:12:48.889Z,15.27
2019-02-03T09:15:20.634Z,14.60
2019-02-03T09:17:49.711Z,14.30
2019-02-03T09:20:27.351Z,14.63
2019-02-03T09:22:56.392Z,14.13
2019-02-03T09:25:25.484Z,14.30
2019-02-03T09:27:54.500Z,12.77
2019-02-03T09:30:28.669Z,12.20
2019-02-03T09:32:57.978Z,14.63
2019-02-03T09:35:27.321Z,12.17
2019-02-03T09:37:56.319Z,14.03
2019-02-03T09:40:27.287Z,13.23
2019-02-03T09:42:56.296Z,13.17
2019-02-03T09:45:26.019Z,14.10
2019-02-03T09:47:55.324Z,13.87
2019-02-03T09:50:26.136Z,14.10
2019-02-03T09:52:57.349Z,14.90
2019-02-03T09:55:26.374Z,16.17
2019-02-03T09:57:56.041Z,15.10
2019-02-03T10:00:27.641Z,14.33
2019-02-03T10:02:58.073Z,15.33
2019-02-03T10:05:27.078Z,15.63
2019-02-03T10:07:56.519Z,15.00
2019-02-03T10:10:27.836Z,14.63
2019-02-03T10:12:57.322Z,14.67
2019-02-03T10:15:26.545Z,15.37
2019-02-03T10:17:55.544Z,16.03
2019-02-03T10:20:25.120Z,13.83
2019-02-03T10:22:54.136Z,13.77
2019-02-03T10:25:24.548Z,14.67
2019-02-03T10:27:53.989Z,12.37
2019-02-03T10:30:24.141Z,12.17
2019-02-03T10:32:53.555Z,13.90
2019-02-03T10:35:24.204Z,14.43
2019-02-03T10:37:53.324Z,13.77
2019-02-03T10:40:24.655Z,14.80
2019-02-03T10:42:54.668Z,14.00
2019-02-03T10:45:24.596Z,16.87
2019-02-03T10:47:54.069Z,16.33
2019-02-03T10:50:26.906Z,16.73
2019-02-03T10:52:56.012Z,17.83
2019-02-03T10:55:25.716Z,15.10
2019-02-03T10:57:55.047Z,16.73
2019-02-03T11:00:26.477Z,14.20
2019-02-03T11:02:55.516Z,15.20
2019-02-03T11:05:27.476Z,14.40
2019-02-03T11:07:57.067Z,14.80
2019-02-03T11:10:26.719Z,15.30
2019-02-03T11:12:56.151Z,14.40
2019-02-03T11:15:25.980Z,13.07
2019-02-03T11:17:54.987Z,15.30
2019-02-03T11:20:26.440Z,13.30
2019-02-03T11:22:56.169Z,14.30
2019-02-03T11:25:26.325Z,14.70
2019-02-03T11:27:55.584Z,15.90
2019-02-03T11:30:26.117Z,15.13
2019-02-03T11:33:05.114Z,14.87
2019-02-03T11:35:26.967Z,16.90
2019-02-03T11:37:56.284Z,15.70
2019-02-03T11:40:27.437Z,16.60
2019-02-03T11:42:56.829Z,16.10
2019-02-03T11:45:32.307Z,16.57
2019-02-03T11:48:01.319Z,16.30
2019-02-03T11:50:35.664Z,16.23
2019-02-03T11:53:06.133Z,14.93
2019-02-03T11:55:35.158Z,14.90
2019-02-03T11:58:04.693Z,15.80
2019-02-03T12:00:34.300Z,17.07
2019-02-03T12:03:04.535Z,16.80
2019-02-03T12:05:33.548Z,17.03
2019-02-03T12:08:02.485Z,16.63
2019-02-03T12:10:32.123Z,17.87
2019-02-03T12:13:01.741Z,19.03
2019-02-03T12:15:30.757Z,21.10
2019-02-03T12:17:59.788Z,17.90
2019-02-03T12:20:28.804Z,19.17
2019-02-03T12:22:57.827Z,19.83
2019-02-03T12:25:28.848Z,19.50
2019-02-03T12:27:58.180Z,19.00
2019-02-03T12:30:29.924Z,20.13
2019-02-03T12:32:59.424Z,21.27
2019-02-03T12:35:28.512Z,19.30
2019-02-03T12:37:58.190Z,20.60
2019-02-03T12:40:29.532Z,19.23
2019-02-03T12:42:58.556Z,20.93
2019-02-03T12:45:28.205Z,20.50
2019-02-03T12:47:57.228Z,21.67
2019-02-03T12:50:26.424Z,22.83
2019-02-03T12:52:55.740Z,20.30
2019-02-03T12:55:27.535Z,18.90
2019-02-03T12:57:56.556Z,19.90
2019-02-03T13:00:28.028Z,22.40
2019-02-03T13:02:57.021Z,19.20
2019-02-03T13:05:26.900Z,19.20
2019-02-03T13:07:56.568Z,20.10
2019-02-03T13:10:30.939Z,21.60
2019-02-03T13:13:00.959Z,19.20
2019-02-03T13:15:32.850Z,21.80
2019-02-03T13:18:01.880Z,22.20
2019-02-03T13:20:31.271Z,23.20
2019-02-03T13:23:00.604Z,22.53
2019-02-03T13:25:29.620Z,23.50
2019-02-03T13:27:58.628Z,22.80
2019-02-03T13:30:32.707Z,23.60
2019-02-03T13:33:01.781Z,22.17
2019-02-03T13:35:30.829Z,26.33
2019-02-03T13:37:59.884Z,26.30
2019-02-03T13:40:36.081Z,26.10
2019-02-03T13:43:06.081Z,24.17
2019-02-03T13:45:35.726Z,25.47
2019-02-03T13:48:06.088Z,24.47
2019-02-03T13:50:35.134Z,26.00
2019-02-03T13:53:04.460Z,26.77
2019-02-03T13:55:33.456Z,25.70
2019-02-03T13:58:02.527Z,27.10
2019-02-03T14:00:33.714Z,25.63
2019-02-03T14:03:02.725Z,25.47
2019-02-03T14:05:31.769Z,23.53
2019-02-03T14:08:01.202Z,27.20
2019-02-03T14:10:31.804Z,26.33
2019-02-03T14:13:01.377Z,24.47
2019-02-03T14:15:30.820Z,23.50
2019-02-03T14:18:00.075Z,24.40
2019-02-03T14:20:30.196Z,26.30
2019-02-03T14:22:59.480Z,26.40
2019-02-03T14:25:29.091Z,24.97
2019-02-03T14:27:58.292Z,25.50
2019-02-03T14:30:41.711Z,24.90
2019-02-03T14:33:11.223Z,26.40
2019-02-03T14:35:47.128Z,23.50
2019-02-03T14:38:16.145Z,24.00
2019-02-03T14:40:45.159Z,24.20
2019-02-03T14:43:14.079Z,24.80
2019-02-03T14:45:43.354Z,22.20
2019-02-03T14:48:12.353Z,24.30
2019-02-03T14:50:41.367Z,24.80
2019-02-03T14:53:15.179Z,23.80
2019-02-03T14:55:53.268Z,24.47
2019-02-03T14:58:24.306Z,23.67
2019-02-03T15:00:54.022Z,24.30
2019-02-03T15:03:24.444Z,24.27
2019-02-03T15:05:53.881Z,25.40
2019-02-03T15:08:22.959Z,26.60
2019-02-03T15:10:51.977Z,24.10
2019-02-03T15:13:21.014Z,26.17
2019-02-03T15:15:50.016Z,25.80
2019-02-03T15:18:19.042Z,24.63
2019-02-03T15:20:48.056Z,27.03
2019-02-03T15:23:17.076Z,24.23
2019-02-03T15:25:46.080Z,26.10
2019-02-03T15:28:16.420Z,25.53
2019-02-03T15:30:46.724Z,24.37
2019-02-03T15:33:15.715Z,23.00
2019-02-03T15:35:44.849Z,24.17
2019-02-03T15:38:13.880Z,25.63
2019-02-03T15:40:43.479Z,26.37
2019-02-03T15:43:24.481Z,22.07
2019-02-03T15:45:43.411Z,25.53
2019-02-03T15:48:12.425Z,24.20
2019-02-03T15:50:41.428Z,21.30
2019-02-03T15:53:10.516Z,22.27
2019-02-03T15:55:39.513Z,21.10
2019-02-03T15:58:10.092Z,18.93
2019-02-03T16:00:41.439Z,18.17
2019-02-03T16:03:11.611Z,20.00
2019-02-03T16:05:40.713Z,18.67
2019-02-03T16:08:29.284Z,20.20
2019-02-03T16:10:58.284Z,20.30
2019-02-03T16:13:36.755Z,19.40
2019-02-03T16:15:57.964Z,19.00
2019-02-03T16:18:27.268Z,18.60
2019-02-03T16:20:56.300Z,20.03
2019-02-03T16:23:25.324Z,20.03
2019-02-03T16:25:54.285Z,21.90
2019-02-03T16:28:23.198Z,21.20
2019-02-03T16:30:52.211Z,21.90
2019-02-03T16:33:21.207Z,21.47
2019-02-03T16:35:50.224Z,21.80
2019-02-03T16:38:22.927Z,20.83
2019-02-03T16:40:49.935Z,21.73
2019-02-03T16:43:19.428Z,21.33
2019-02-03T16:45:48.447Z,19.10
2019-02-03T16:48:17.455Z,19.57
2019-02-03T16:50:46.523Z,18.20
2019-02-03T16:53:15.505Z,16.90
2019-02-03T16:55:44.579Z,16.80
2019-02-03T16:58:13.903Z,17.13
2019-02-03T17:00:42.929Z,16.37
2019-02-03T17:03:11.920Z,17.70
2019-02-03T17:05:40.885Z,17.43
2019-02-03T17:08:09.956Z,17.63
2019-02-03T17:10:39.004Z,16.47
2019-02-03T17:13:08.096Z,18.90
2019-02-03T17:15:43.004Z,17.83
2019-02-03T17:18:12.563Z,19.90
2019-02-03T17:20:41.565Z,18.40
2019-02-03T17:23:10.614Z,20.90
2019-02-03T17:25:42.216Z,21.03
2019-02-03T17:28:11.276Z,23.20
2019-02-03T17:30:40.273Z,21.63
2019-02-03T17:33:09.603Z,20.47
2019-02-03T17:35:38.606Z,19.77
2019-02-03T17:38:07.610Z,21.13
2019-02-03T17:40:36.636Z,19.10
2019-02-03T17:43:25.404Z,22.07
2019-02-03T17:45:54.500Z,19.03
2019-02-03T17:48:23.512Z,17.97
2019-02-03T17:50:52.539Z,19.17
2019-02-03T17:53:21.540Z,17.00
2019-02-03T17:55:50.530Z,17.77
2019-02-03T17:58:19.549Z,18.50
2019-02-03T18:00:52.364Z,18.50
2019-02-03T18:03:21.390Z,21.97
2019-02-03T18:05:50.371Z,20.13
2019-02-03T18:08:19.961Z,20.00
2019-02-03T18:10:48.886Z,17.80
2019-02-03T18:13:17.886Z,19.27
2019-02-03T18:15:46.903Z,19.03
2019-02-03T18:18:15.908Z,19.73
2019-02-03T18:20:44.880Z,19.57
2019-02-03T18:23:13.804Z,18.00
2019-02-03T18:25:42.830Z,18.80
2019-02-03T18:28:30.899Z,17.47
2019-02-03T18:30:59.896Z,18.80
2019-02-03T18:33:28.906Z,19.30
2019-02-03T18:35:57.915Z,18.40
2019-02-03T18:38:26.856Z,16.63
2019-02-03T18:40:55.881Z,19.67
2019-02-03T18:43:24.887Z,18.67
2019-02-03T18:45:56.679Z,19.40
2019-02-03T18:48:26.665Z,18.30
2019-02-03T18:50:55.698Z,18.77
2019-02-03T18:53:24.638Z,18.53
2019-02-03T18:55:53.648Z,18.73
2019-02-03T18:58:22.674Z,20.27
2019-02-03T19:00:52.195Z,20.43
2019-02-03T19:03:21.268Z,19.23
2019-02-03T19:05:50.284Z,19.97
2019-02-03T19:08:19.215Z,18.73
2019-02-03T19:10:48.428Z,22.10
2019-02-03T19:13:18.789Z,21.13
2019-02-03T19:15:47.821Z,20.23
2019-02-03T19:18:16.817Z,20.80
2019-02-03T19:20:45.823Z,21.70
2019-02-03T19:23:14.874Z,19.90
2019-02-03T19:25:44.367Z,20.37
2019-02-03T19:28:13.557Z,20.13
2019-02-03T19:30:42.552Z,20.50
2019-02-03T19:33:11.545Z,21.03
2019-02-03T19:35:43.267Z,20.80
2019-02-03T19:38:12.308Z,19.97
2019-02-03T19:40:41.332Z,20.97
2019-02-03T19:43:10.773Z,19.77
2019-02-03T19:45:39.804Z,20.70
2019-02-03T19:48:08.902Z,20.10
2019-02-03T19:50:38.838Z,19.93
2019-02-03T19:53:08.828Z,19.67
2019-02-03T19:55:38.124Z,19.03
2019-02-03T19:58:07.782Z,19.90
2019-02-03T20:00:38.913Z,20.23
2019-02-03T20:03:08.492Z,20.63
2019-02-03T20:05:37.449Z,19.93
2019-02-03T20:08:07.130Z,22.33
2019-02-03T20:10:37.213Z,18.90
2019-02-03T20:13:07.043Z,19.80
2019-02-03T20:15:36.096Z,20.37
2019-02-03T20:18:05.863Z,20.83
2019-02-03T20:20:35.657Z,20.23
2019-02-03T20:23:06.713Z,21.23
2019-02-03T20:25:35.683Z,20.90
2019-02-03T20:28:05.795Z,18.57
2019-02-03T20:30:38.553Z,22.37
2019-02-03T20:33:06.135Z,19.67
2019-02-03T20:35:35.132Z,20.23
2019-02-03T20:38:04.932Z,21.20
2019-02-03T20:40:35.845Z,21.70
2019-02-03T20:43:05.351Z,19.77
2019-02-03T20:45:36.174Z,18.57
2019-02-03T20:48:05.138Z,20.70
2019-02-03T20:50:34.132Z,18.97
2019-02-03T20:53:03.080Z,19.80
2019-02-03T20:55:32.199Z,18.83
2019-02-03T20:58:07.034Z,20.17
2019-02-03T21:00:36.939Z,18.57
2019-02-03T21:03:06.809Z,21.07
2019-02-03T21:05:55.285Z,20.30
2019-02-03T21:08:24.295Z,21.07
2019-02-03T21:10:53.243Z,19.80
2019-02-03T21:13:22.181Z,21.10
2019-02-03T21:15:51.580Z,21.70
2019-02-03T21:18:20.561Z,18.63
2019-02-03T21:20:56.308Z,20.20
2019-02-03T21:23:25.327Z,22.10
2019-02-03T21:25:54.336Z,21.83
2019-02-03T21:28:23.294Z,21.23
2019-02-03T21:30:52.301Z,21.30
2019-02-03T21:33:21.288Z,22.90
2019-02-03T21:35:50.297Z,19.00
2019-02-03T21:38:19.303Z,20.47
2019-02-03T21:40:48.336Z,22.17
2019-02-03T21:43:17.857Z,22.47
2019-02-03T21:45:46.862Z,20.87
2019-02-03T21:48:15.884Z,20.63
2019-02-03T21:50:44.881Z,21.00
2019-02-03T21:53:13.924Z,23.20
2019-02-03T21:55:42.979Z,21.40
2019-02-03T21:58:12.452Z,21.93
2019-02-03T22:00:41.412Z,21.53
2019-02-03T22:03:29.551Z,20.30
2019-02-03T22:05:58.568Z,20.93
2019-02-03T22:08:28.077Z,19.83
2019-02-03T22:10:56.978Z,22.30
2019-02-03T22:13:45.111Z,21.00
2019-02-03T22:16:14.456Z,18.93
2019-02-03T22:18:43.959Z,19.83
2019-02-03T22:21:16.004Z,21.03
2019-02-03T22:23:45.016Z,20.33
2019-02-03T22:26:14.015Z,20.13
2019-02-03T22:28:42.940Z,21.37
2019-02-03T22:31:11.960Z,19.73
2019-02-03T22:33:40.974Z,21.17
2019-02-03T22:36:09.992Z,19.17
2019-02-03T22:38:58.027Z,19.60
2019-02-03T22:41:27.047Z,19.00
2019-02-03T22:43:56.080Z,20.03
2019-02-03T22:46:25.076Z,19.60
2019-02-03T22:48:53.929Z,20.60
2019-02-03T22:51:22.907Z,19.03
2019-02-03T22:53:51.889Z,19.40
2019-02-03T22:56:21.174Z,18.83
2019-02-03T22:58:50.192Z,19.10
2019-02-03T23:01:28.588Z,21.90
2019-02-03T23:04:07.135Z,20.83
2019-02-03T23:06:37.842Z,20.60
2019-02-03T23:09:21.373Z,20.67
2019-02-03T23:11:50.368Z,21.30
2019-02-03T23:14:19.407Z,20.63
2019-02-03T23:16:48.440Z,20.63
2019-02-03T23:19:17.617Z,20.20
2019-02-03T23:21:46.637Z,20.07
2019-02-03T23:24:15.632Z,21.20
2019-02-03T23:26:44.661Z,20.00
2019-02-03T23:29:13.668Z,20.47
2019-02-03T23:31:42.696Z,21.10
2019-02-03T23:34:11.732Z,22.23
2019-02-03T23:36:40.840Z,21.93
2019-02-03T23:39:13.407Z,21.50
2019-02-03T23:41:43.028Z,21.43
2019-02-03T23:44:31.174Z,20.60
2019-02-03T23:47:00.188Z,21.23
2019-02-03T23:49:29.200Z,22.90
2019-02-03T23:51:58.132Z,21.73
2019-02-03T23:54:27.132Z,21.13
2019-02-03T23:56:56.175Z,21.80
2019-02-03T23:59:25.172Z,21.10
